sensor_id;sensor_type;location;lat;lon;timestamp;P1;durP1;ratioP1;P2;durP2;ratioP2
73909;SDS011;62245;48.070;7.874;2022-10-17T03:02:39;6.13;;;2.00;;
73909;SDS011;62245;48.070;7.874;2022-10-17T03:05:05;5.72;;;1.83;;
73909;SDS011;62245;48.070;7.874;2022-10-17T03:07:31;5.95;;;1.92;;
73909;SDS011;62245;48.070;7.874;2022-10-17T03:09:57;7.07;;;2.10;;
73909;SDS011;62245;48.070;7.874;2022-10-17T03:12:22;8.13;;;2.33;;
73909;SDS011;62245;48.070;7.874;2022-10-17T03:14:47;5.90;;;2.27;;
73909;SDS011;62245;48.070;7.874;2022-10-17T03:17:13;5.23;;;1.77;;
73909;SDS011;62245;48.070;7.874;2022-10-17T03:19:38;6.45;;;1.75;;
73909;SDS011;62245;48.070;7.874;2022-10-17T03:22:03;4.27;;;2.03;;
73909;SDS011;62245;48.070;7.874;2022-10-17T03:24:28;6.57;;;2.30;;
73909;SDS011;62245;48.070;7.874;2022-10-17T03:26:54;7.43;;;1.70;;
73909;SDS011;62245;48.070;7.874;2022-10-17T03:29:19;7.65;;;2.30;;
73909;SDS011;62245;48.070;7.874;2022-10-17T03:31:44;7.83;;;2.50;;
73909;SDS011;62245;48.070;7.874;2022-10-17T03:34:10;7.07;;;2.17;;
73909;SDS011;62245;48.070;7.874;2022-10-17T03:36:35;9.50;;;2.33;;
73909;SDS011;62245;48.070;7.874;2022-10-17T03:39:00;9.83;;;2.23;;
73909;SDS011;62245;48.070;7.874;2022-10-17T03:41:25;8.67;;;2.20;;
73909;SDS011;62245;48.070;7.874;2022-10-17T03:43:51;8.70;;;2.77;;
73909;SDS011;62245;48.070;7.874;2022-10-17T03:46:18;10.25;;;2.78;;
73909;SDS011;62245;48.070;7.874;2022-10-17T03:48:43;6.80;;;2.47;;
73909;SDS011;62245;48.070;7.874;2022-10-17T03:51:09;6.13;;;2.47;;
73909;SDS011;62245;48.070;7.874;2022-10-17T03:53:34;7.72;;;2.65;;
73909;SDS011;62245;48.070;7.874;2022-10-17T03:56:16;6.83;;;2.13;;
73909;SDS011;62245;48.070;7.874;2022-10-17T03:58:44;9.38;;;2.42;;
73909;SDS011;62245;48.070;7.874;2022-10-17T04:01:10;6.57;;;2.53;;
73909;SDS011;62245;48.070;7.874;2022-10-17T04:03:37;9.05;;;2.50;;
73909;SDS011;62245;48.070;7.874;2022-10-17T04:06:03;5.78;;;2.28;;
73909;SDS011;62245;48.070;7.874;2022-10-17T04:08:30;5.47;;;2.22;;
73909;SDS011;62245;48.070;7.874;2022-10-17T04:10:59;8.98;;;2.10;;
73909;SDS011;62245;48.070;7.874;2022-10-17T04:13:26;6.85;;;2.45;;
73909;SDS011;62245;48.070;7.874;2022-10-17T04:15:53;6.00;;;2.30;;
73909;SDS011;62245;48.070;7.874;2022-10-17T04:18:19;4.80;;;2.05;;
73909;SDS011;62245;48.070;7.874;2022-10-17T04:20:45;5.30;;;2.13;;
73909;SDS011;62245;48.070;7.874;2022-10-17T04:23:10;5.37;;;2.33;;
73909;SDS011;62245;48.070;7.874;2022-10-17T04:25:35;4.90;;;1.97;;
73909;SDS011;62245;48.070;7.874;2022-10-17T04:28:00;5.93;;;2.40;;
73909;SDS011;62245;48.070;7.874;2022-10-17T04:30:26;6.87;;;2.43;;
73909;SDS011;62245;48.070;7.874;2022-10-17T04:32:51;5.13;;;2.20;;
73909;SDS011;62245;48.070;7.874;2022-10-17T04:35:16;7.33;;;2.20;;
73909;SDS011;62245;48.070;7.874;2022-10-17T04:37:41;8.37;;;2.50;;
73909;SDS011;62245;48.070;7.874;2022-10-17T04:40:07;6.18;;;2.65;;
73909;SDS011;62245;48.070;7.874;2022-10-17T04:42:33;6.07;;;2.28;;
73909;SDS011;62245;48.070;7.874;2022-10-17T04:44:58;7.57;;;2.30;;
73909;SDS011;62245;48.070;7.874;2022-10-17T04:47:23;8.53;;;3.07;;
73909;SDS011;62245;48.070;7.874;2022-10-17T04:49:49;7.78;;;2.40;;
73909;SDS011;62245;48.070;7.874;2022-10-17T04:52:14;8.77;;;2.70;;
73909;SDS011;62245;48.070;7.874;2022-10-17T04:54:40;5.40;;;2.70;;
73909;SDS011;62245;48.070;7.874;2022-10-17T04:57:05;7.50;;;2.70;;
73909;SDS011;62245;48.070;7.874;2022-10-17T04:59:30;5.77;;;2.27;;
73909;SDS011;62245;48.070;7.874;2022-10-17T05:01:55;6.83;;;1.90;;
73909;SDS011;62245;48.070;7.874;2022-10-17T05:04:21;7.53;;;2.20;;
73909;SDS011;62245;48.070;7.874;2022-10-17T05:06:46;7.93;;;2.60;;
73909;SDS011;62245;48.070;7.874;2022-10-17T05:09:11;5.90;;;2.47;;
73909;SDS011;62245;48.070;7.874;2022-10-17T05:11:36;8.83;;;2.93;;
73909;SDS011;62245;48.070;7.874;2022-10-17T05:14:02;8.80;;;2.50;;
73909;SDS011;62245;48.070;7.874;2022-10-17T05:16:28;6.28;;;2.63;;
73909;SDS011;62245;48.070;7.874;2022-10-17T05:18:54;6.90;;;2.70;;
73909;SDS011;62245;48.070;7.874;2022-10-17T05:21:21;6.57;;;2.42;;
73909;SDS011;62245;48.070;7.874;2022-10-17T05:23:48;5.88;;;2.30;;
73909;SDS011;62245;48.070;7.874;2022-10-17T05:26:14;5.97;;;2.20;;
73909;SDS011;62245;48.070;7.874;2022-10-17T05:28:39;5.43;;;2.40;;
73909;SDS011;62245;48.070;7.874;2022-10-17T05:31:05;5.65;;;2.53;;
73909;SDS011;62245;48.070;7.874;2022-10-17T05:33:32;7.07;;;2.35;;
73909;SDS011;62245;48.070;7.874;2022-10-17T05:35:58;5.75;;;2.30;;
73909;SDS011;62245;48.070;7.874;2022-10-17T05:38:24;7.65;;;2.60;;
73909;SDS011;62245;48.070;7.874;2022-10-17T05:40:49;7.18;;;2.63;;
73909;SDS011;62245;48.070;7.874;2022-10-17T05:43:15;5.68;;;2.25;;
73909;SDS011;62245;48.070;7.874;2022-10-17T05:45:40;6.57;;;2.70;;
73909;SDS011;62245;48.070;7.874;2022-10-17T05:48:05;7.90;;;2.90;;
73909;SDS011;62245;48.070;7.874;2022-10-17T05:50:32;7.50;;;2.53;;
73909;SDS011;62245;48.070;7.874;2022-10-17T05:52:58;7.68;;;2.75;;
73909;SDS011;62245;48.070;7.874;2022-10-17T05:55:23;6.43;;;2.53;;
73909;SDS011;62245;48.070;7.874;2022-10-17T05:57:49;7.65;;;3.40;;
73909;SDS011;62245;48.070;7.874;2022-10-17T06:00:16;6.50;;;2.83;;
73909;SDS011;62245;48.070;7.874;2022-10-17T06:02:42;6.68;;;3.22;;
73909;SDS011;62245;48.070;7.874;2022-10-17T06:05:10;7.43;;;3.03;;
73909;SDS011;62245;48.070;7.874;2022-10-17T06:07:35;6.53;;;3.10;;
73909;SDS011;62245;48.070;7.874;2022-10-17T06:10:00;7.80;;;3.22;;
73909;SDS011;62245;48.070;7.874;2022-10-17T06:12:26;7.70;;;3.10;;
73909;SDS011;62245;48.070;7.874;2022-10-17T06:14:51;10.93;;;4.73;;
73909;SDS011;62245;48.070;7.874;2022-10-17T06:17:16;7.93;;;3.33;;
73909;SDS011;62245;48.070;7.874;2022-10-17T06:19:42;7.27;;;3.20;;
73909;SDS011;62245;48.070;7.874;2022-10-17T06:22:08;7.15;;;2.83;;
73909;SDS011;62245;48.070;7.874;2022-10-17T06:24:34;6.85;;;2.70;;
73909;SDS011;62245;48.070;7.874;2022-10-17T06:26:59;6.15;;;2.95;;
73909;SDS011;62245;48.070;7.874;2022-10-17T06:29:24;6.57;;;2.67;;
73909;SDS011;62245;48.070;7.874;2022-10-17T06:31:50;7.40;;;3.10;;
73909;SDS011;62245;48.070;7.874;2022-10-17T06:34:15;8.45;;;2.85;;
73909;SDS011;62245;48.070;7.874;2022-10-17T06:36:41;8.40;;;3.40;;
73909;SDS011;62245;48.070;7.874;2022-10-17T06:39:06;5.83;;;2.83;;
73909;SDS011;62245;48.070;7.874;2022-10-17T06:41:32;6.43;;;3.15;;
73909;SDS011;62245;48.070;7.874;2022-10-17T06:43:57;9.00;;;2.77;;
73909;SDS011;62245;48.070;7.874;2022-10-17T06:46:22;9.13;;;3.17;;
73909;SDS011;62245;48.070;7.874;2022-10-17T06:48:50;11.15;;;3.53;;
73909;SDS011;62245;48.070;7.874;2022-10-17T06:51:16;6.03;;;2.55;;
73909;SDS011;62245;48.070;7.874;2022-10-17T06:53:41;8.27;;;2.73;;
73909;SDS011;62245;48.070;7.874;2022-10-17T06:56:07;9.55;;;2.88;;
73909;SDS011;62245;48.070;7.874;2022-10-17T06:58:34;7.38;;;2.78;;
73909;SDS011;62245;48.070;7.874;2022-10-17T07:01:04;7.97;;;2.72;;
73909;SDS011;62245;48.070;7.874;2022-10-17T07:03:31;5.85;;;2.67;;
73909;SDS011;62245;48.070;7.874;2022-10-17T07:05:56;6.80;;;2.80;;
73909;SDS011;62245;48.070;7.874;2022-10-17T07:08:22;7.53;;;2.80;;
73909;SDS011;62245;48.070;7.874;2022-10-17T07:10:48;7.10;;;2.83;;
73909;SDS011;62245;48.070;7.874;2022-10-17T07:13:14;7.75;;;2.90;;
73909;SDS011;62245;48.070;7.874;2022-10-17T07:15:40;7.60;;;3.03;;
73909;SDS011;62245;48.070;7.874;2022-10-17T07:18:05;7.22;;;2.70;;
73909;SDS011;62245;48.070;7.874;2022-10-17T07:20:31;8.65;;;2.97;;
73909;SDS011;62245;48.070;7.874;2022-10-17T07:22:56;6.45;;;2.80;;
73909;SDS011;62245;48.070;7.874;2022-10-17T07:25:22;5.50;;;2.50;;
73909;SDS011;62245;48.070;7.874;2022-10-17T07:27:47;7.43;;;2.80;;
73909;SDS011;62245;48.070;7.874;2022-10-17T07:30:14;6.82;;;2.55;;
73909;SDS011;62245;48.070;7.874;2022-10-17T07:32:40;6.63;;;2.92;;
73909;SDS011;62245;48.070;7.874;2022-10-17T07:35:06;11.93;;;2.83;;
73909;SDS011;62245;48.070;7.874;2022-10-17T07:37:31;9.70;;;2.92;;
73909;SDS011;62245;48.070;7.874;2022-10-17T07:39:57;5.85;;;2.42;;
73909;SDS011;62245;48.070;7.874;2022-10-17T07:42:22;6.67;;;2.90;;
73909;SDS011;62245;48.070;7.874;2022-10-17T07:44:47;7.20;;;2.50;;
73909;SDS011;62245;48.070;7.874;2022-10-17T07:47:13;7.33;;;2.30;;
73909;SDS011;62245;48.070;7.874;2022-10-17T07:49:38;7.20;;;2.43;;
73909;SDS011;62245;48.070;7.874;2022-10-17T07:52:08;7.10;;;2.33;;
73909;SDS011;62245;48.070;7.874;2022-10-17T07:54:35;7.55;;;2.50;;
73909;SDS011;62245;48.070;7.874;2022-10-17T07:57:00;5.77;;;2.37;;
73909;SDS011;62245;48.070;7.874;2022-10-17T07:59:25;6.73;;;2.30;;
73909;SDS011;62245;48.070;7.874;2022-10-17T08:01:53;6.47;;;2.07;;
73909;SDS011;62245;48.070;7.874;2022-10-17T08:04:19;4.40;;;1.80;;
73909;SDS011;62245;48.070;7.874;2022-10-17T08:06:44;5.27;;;2.30;;
73909;SDS011;62245;48.070;7.874;2022-10-17T08:09:10;4.47;;;1.70;;
73909;SDS011;62245;48.070;7.874;2022-10-17T08:11:35;6.03;;;2.00;;
73909;SDS011;62245;48.070;7.874;2022-10-17T08:14:01;5.47;;;2.00;;
73909;SDS011;62245;48.070;7.874;2022-10-17T08:16:26;6.05;;;2.35;;
73909;SDS011;62245;48.070;7.874;2022-10-17T08:18:51;8.77;;;2.37;;
73909;SDS011;62245;48.070;7.874;2022-10-17T08:21:17;6.97;;;2.47;;
73909;SDS011;62245;48.070;7.874;2022-10-17T08:23:42;8.73;;;2.50;;
73909;SDS011;62245;48.070;7.874;2022-10-17T08:26:07;9.47;;;2.90;;
73909;SDS011;62245;48.070;7.874;2022-10-17T08:28:37;6.40;;;2.60;;
73909;SDS011;62245;48.070;7.874;2022-10-17T08:31:08;7.85;;;2.88;;
73909;SDS011;62245;48.070;7.874;2022-10-17T08:33:35;5.93;;;2.53;;
73909;SDS011;62245;48.070;7.874;2022-10-17T08:36:00;6.22;;;3.13;;
73909;SDS011;62245;48.070;7.874;2022-10-17T08:38:28;8.27;;;2.90;;
73909;SDS011;62245;48.070;7.874;2022-10-17T08:40:55;7.25;;;2.67;;
73909;SDS011;62245;48.070;7.874;2022-10-17T08:43:32;5.28;;;2.08;;
73909;SDS011;62245;48.070;7.874;2022-10-17T08:46:06;6.18;;;2.35;;
73909;SDS011;62245;48.070;7.874;2022-10-17T08:48:37;7.00;;;2.42;;
73909;SDS011;62245;48.070;7.874;2022-10-17T08:51:12;4.90;;;2.17;;
73909;SDS011;62245;48.070;7.874;2022-10-17T08:53:44;5.38;;;2.00;;
73909;SDS011;62245;48.070;7.874;2022-10-17T08:56:19;7.15;;;2.33;;
73909;SDS011;62245;48.070;7.874;2022-10-17T08:58:45;8.35;;;2.10;;
73909;SDS011;62245;48.070;7.874;2022-10-17T09:06:45;13.30;;;8.75;;
73909;SDS011;62245;48.070;7.874;2022-10-17T09:11:55;9.18;;;2.17;;
73909;SDS011;62245;48.070;7.874;2022-10-17T09:17:29;7.45;;;2.22;;
73909;SDS011;62245;48.070;7.874;2022-10-17T09:20:21;7.57;;;2.30;;
73909;SDS011;62245;48.070;7.874;2022-10-17T09:25:21;5.22;;;1.80;;
73909;SDS011;62245;48.070;7.874;2022-10-17T09:27:47;5.95;;;2.20;;
73909;SDS011;62245;48.070;7.874;2022-10-17T09:30:21;5.20;;;1.85;;
73909;SDS011;62245;48.070;7.874;2022-10-17T09:32:52;6.97;;;2.08;;
73909;SDS011;62245;48.070;7.874;2022-10-17T09:35:18;7.10;;;2.22;;
73909;SDS011;62245;48.070;7.874;2022-10-17T09:37:45;5.25;;;1.85;;
73909;SDS011;62245;48.070;7.874;2022-10-17T09:40:14;10.48;;;2.28;;
73909;SDS011;62245;48.070;7.874;2022-10-17T09:42:43;6.78;;;2.00;;
73909;SDS011;62245;48.070;7.874;2022-10-17T09:45:18;5.70;;;2.33;;
73909;SDS011;62245;48.070;7.874;2022-10-17T09:47:56;7.32;;;2.15;;
73909;SDS011;62245;48.070;7.874;2022-10-17T09:50:32;5.78;;;2.00;;
73909;SDS011;62245;48.070;7.874;2022-10-17T09:53:11;5.82;;;2.13;;
73909;SDS011;62245;48.070;7.874;2022-10-17T09:55:40;3.97;;;1.98;;
73909;SDS011;62245;48.070;7.874;2022-10-17T09:58:08;7.18;;;2.00;;
73909;SDS011;62245;48.070;7.874;2022-10-17T10:00:36;7.78;;;2.35;;
73909;SDS011;62245;48.070;7.874;2022-10-17T10:08:25;6.13;;;2.03;;
73909;SDS011;62245;48.070;7.874;2022-10-17T10:10:56;6.30;;;2.17;;
73909;SDS011;62245;48.070;7.874;2022-10-17T10:13:25;6.18;;;2.00;;
73909;SDS011;62245;48.070;7.874;2022-10-17T10:15:51;6.28;;;1.92;;
73909;SDS011;62245;48.070;7.874;2022-10-17T10:18:30;8.77;;;1.88;;
73909;SDS011;62245;48.070;7.874;2022-10-17T10:23:38;8.10;;;2.13;;
73909;SDS011;62245;48.070;7.874;2022-10-17T10:26:28;10.55;;;2.08;;
73909;SDS011;62245;48.070;7.874;2022-10-17T10:28:54;7.57;;;1.95;;
73909;SDS011;62245;48.070;7.874;2022-10-17T10:31:26;6.57;;;2.15;;
73909;SDS011;62245;48.070;7.874;2022-10-17T10:34:02;7.32;;;2.25;;
73909;SDS011;62245;48.070;7.874;2022-10-17T10:36:42;6.78;;;2.15;;
73909;SDS011;62245;48.070;7.874;2022-10-17T10:39:33;6.55;;;1.90;;
73909;SDS011;62245;48.070;7.874;2022-10-17T10:42:00;7.68;;;2.13;;
73909;SDS011;62245;48.070;7.874;2022-10-17T10:44:28;7.65;;;2.20;;
73909;SDS011;62245;48.070;7.874;2022-10-17T10:47:15;6.70;;;2.03;;
73909;SDS011;62245;48.070;7.874;2022-10-17T10:49:43;7.28;;;2.05;;
73909;SDS011;62245;48.070;7.874;2022-10-17T10:52:21;10.50;;;1.92;;
73909;SDS011;62245;48.070;7.874;2022-10-17T10:55:41;6.85;;;1.90;;
73909;SDS011;62245;48.070;7.874;2022-10-17T10:58:11;6.65;;;2.00;;
73909;SDS011;62245;48.070;7.874;2022-10-17T11:00:47;8.63;;;2.22;;
73909;SDS011;62245;48.070;7.874;2022-10-17T11:03:15;5.40;;;1.88;;
73909;SDS011;62245;48.070;7.874;2022-10-17T11:05:47;4.47;;;1.70;;
73909;SDS011;62245;48.070;7.874;2022-10-17T11:08:37;4.80;;;1.52;;
73909;SDS011;62245;48.070;7.874;2022-10-17T11:11:13;4.82;;;1.42;;
73909;SDS011;62245;48.070;7.874;2022-10-17T11:13:50;6.35;;;1.58;;
73909;SDS011;62245;48.070;7.874;2022-10-17T11:22:35;6.63;;;1.55;;
73909;SDS011;62245;48.070;7.874;2022-10-17T11:27:49;5.63;;;1.33;;
73909;SDS011;62245;48.070;7.874;2022-10-17T11:30:14;5.67;;;1.40;;
73909;SDS011;62245;48.070;7.874;2022-10-17T11:32:54;4.13;;;1.52;;
73909;SDS011;62245;48.070;7.874;2022-10-17T11:35:28;5.68;;;1.63;;
73909;SDS011;62245;48.070;7.874;2022-10-17T11:38:07;3.35;;;1.30;;
73909;SDS011;62245;48.070;7.874;2022-10-17T11:40:50;3.47;;;1.23;;
73909;SDS011;62245;48.070;7.874;2022-10-17T11:43:26;3.95;;;1.50;;
73909;SDS011;62245;48.070;7.874;2022-10-17T11:45:56;5.60;;;1.60;;
73909;SDS011;62245;48.070;7.874;2022-10-17T11:48:27;7.32;;;1.65;;
73909;SDS011;62245;48.070;7.874;2022-10-17T11:51:08;4.28;;;1.40;;
73909;SDS011;62245;48.070;7.874;2022-10-17T11:53:50;5.60;;;1.20;;
73909;SDS011;62245;48.070;7.874;2022-10-17T11:56:37;3.17;;;1.25;;
73909;SDS011;62245;48.070;7.874;2022-10-17T12:02:34;6.72;;;1.60;;
73909;SDS011;62245;48.070;7.874;2022-10-17T12:15:56;4.55;;;1.40;;
73909;SDS011;62245;48.070;7.874;2022-10-17T12:18:42;9.70;;;1.58;;
73909;SDS011;62245;48.070;7.874;2022-10-17T12:21:08;4.57;;;1.58;;
73909;SDS011;62245;48.070;7.874;2022-10-17T12:23:33;5.65;;;1.40;;
73909;SDS011;62245;48.070;7.874;2022-10-17T12:26:04;5.60;;;1.40;;
73909;SDS011;62245;48.070;7.874;2022-10-17T12:33:52;4.15;;;1.27;;
73909;SDS011;62245;48.070;7.874;2022-10-17T12:44:05;5.43;;;1.60;;
73909;SDS011;62245;48.070;7.874;2022-10-17T12:57:24;7.45;;;1.23;;
73909;SDS011;62245;48.070;7.874;2022-10-17T12:59:55;5.53;;;1.35;;
73909;SDS011;62245;48.070;7.874;2022-10-17T13:02:23;2.83;;;1.00;;
73909;SDS011;62245;48.070;7.874;2022-10-17T13:04:51;4.38;;;1.23;;
73909;SDS011;62245;48.070;7.874;2022-10-17T13:07:27;4.95;;;1.23;;
73909;SDS011;62245;48.070;7.874;2022-10-17T13:09:52;3.15;;;1.25;;
73909;SDS011;62245;48.070;7.874;2022-10-17T13:12:22;4.30;;;1.02;;
73909;SDS011;62245;48.070;7.874;2022-10-17T13:14:51;2.85;;;1.05;;
73909;SDS011;62245;48.070;7.874;2022-10-17T13:17:26;1.92;;;1.13;;
73909;SDS011;62245;48.070;7.874;2022-10-17T13:19:54;3.58;;;1.50;;
73909;SDS011;62245;48.070;7.874;2022-10-17T13:22:21;2.90;;;1.27;;
73909;SDS011;62245;48.070;7.874;2022-10-17T13:24:51;2.63;;;1.20;;
73909;SDS011;62245;48.070;7.874;2022-10-17T13:27:32;4.15;;;1.30;;
73909;SDS011;62245;48.070;7.874;2022-10-17T13:29:59;3.75;;;1.15;;
73909;SDS011;62245;48.070;7.874;2022-10-17T13:32:33;3.65;;;1.20;;
73909;SDS011;62245;48.070;7.874;2022-10-17T13:35:13;4.75;;;1.30;;
73909;SDS011;62245;48.070;7.874;2022-10-17T13:37:41;3.35;;;1.15;;
73909;SDS011;62245;48.070;7.874;2022-10-17T13:40:17;5.57;;;1.33;;
73909;SDS011;62245;48.070;7.874;2022-10-17T13:42:44;5.60;;;1.15;;
73909;SDS011;62245;48.070;7.874;2022-10-17T13:47:51;5.57;;;1.27;;
73909;SDS011;62245;48.070;7.874;2022-10-17T13:50:24;4.30;;;1.17;;
73909;SDS011;62245;48.070;7.874;2022-10-17T13:55:51;2.65;;;1.10;;
73909;SDS011;62245;48.070;7.874;2022-10-17T13:58:23;2.38;;;1.13;;
73909;SDS011;62245;48.070;7.874;2022-10-17T14:00:49;5.10;;;1.30;;
73909;SDS011;62245;48.070;7.874;2022-10-17T14:03:16;2.13;;;1.10;;
73909;SDS011;62245;48.070;7.874;2022-10-17T14:08:27;3.72;;;1.25;;
73909;SDS011;62245;48.070;7.874;2022-10-17T14:10:54;7.07;;;1.73;;
73909;SDS011;62245;48.070;7.874;2022-10-17T14:13:20;6.03;;;1.35;;
73909;SDS011;62245;48.070;7.874;2022-10-17T14:18:18;4.63;;;1.48;;
73909;SDS011;62245;48.070;7.874;2022-10-17T14:20:46;3.78;;;1.30;;
73909;SDS011;62245;48.070;7.874;2022-10-17T14:23:29;3.72;;;1.30;;
73909;SDS011;62245;48.070;7.874;2022-10-17T14:26:04;4.68;;;1.20;;
73909;SDS011;62245;48.070;7.874;2022-10-17T14:28:36;2.70;;;1.17;;
73909;SDS011;62245;48.070;7.874;2022-10-17T14:31:09;3.33;;;1.25;;
73909;SDS011;62245;48.070;7.874;2022-10-17T14:33:41;3.83;;;1.30;;
73909;SDS011;62245;48.070;7.874;2022-10-17T14:36:09;5.80;;;1.35;;
73909;SDS011;62245;48.070;7.874;2022-10-17T14:38:34;3.23;;;1.40;;
73909;SDS011;62245;48.070;7.874;2022-10-17T14:41:00;3.30;;;1.40;;
73909;SDS011;62245;48.070;7.874;2022-10-17T14:43:29;5.30;;;1.38;;
73909;SDS011;62245;48.070;7.874;2022-10-17T14:45:57;3.20;;;1.50;;
73909;SDS011;62245;48.070;7.874;2022-10-17T14:48:24;5.38;;;1.38;;
73909;SDS011;62245;48.070;7.874;2022-10-17T14:51:11;5.68;;;1.33;;
73909;SDS011;62245;48.070;7.874;2022-10-17T14:53:41;5.43;;;1.40;;
73909;SDS011;62245;48.070;7.874;2022-10-17T14:56:20;5.15;;;1.77;;
73909;SDS011;62245;48.070;7.874;2022-10-17T14:58:58;3.80;;;1.35;;
73909;SDS011;62245;48.070;7.874;2022-10-17T15:01:23;4.60;;;1.30;;
73909;SDS011;62245;48.070;7.874;2022-10-17T15:03:48;4.97;;;1.40;;
73909;SDS011;62245;48.070;7.874;2022-10-17T15:06:20;6.22;;;1.45;;
73909;SDS011;62245;48.070;7.874;2022-10-17T15:08:50;3.30;;;1.25;;
73909;SDS011;62245;48.070;7.874;2022-10-17T15:11:15;5.77;;;1.30;;
73909;SDS011;62245;48.070;7.874;2022-10-17T15:13:41;4.80;;;1.40;;
73909;SDS011;62245;48.070;7.874;2022-10-17T15:16:25;3.60;;;1.10;;
73909;SDS011;62245;48.070;7.874;2022-10-17T15:18:54;4.38;;;1.30;;
73909;SDS011;62245;48.070;7.874;2022-10-17T15:21:20;4.65;;;1.50;;
73909;SDS011;62245;48.070;7.874;2022-10-17T15:23:47;3.92;;;1.50;;
73909;SDS011;62245;48.070;7.874;2022-10-17T15:26:20;4.00;;;1.42;;
73909;SDS011;62245;48.070;7.874;2022-10-17T15:31:14;6.30;;;1.48;;
73909;SDS011;62245;48.070;7.874;2022-10-17T15:33:41;3.13;;;1.40;;
73909;SDS011;62245;48.070;7.874;2022-10-17T15:36:17;6.38;;;1.33;;
73909;SDS011;62245;48.070;7.874;2022-10-17T15:38:42;5.57;;;1.50;;
73909;SDS011;62245;48.070;7.874;2022-10-17T15:41:09;5.40;;;1.70;;
73909;SDS011;62245;48.070;7.874;2022-10-17T15:43:35;4.85;;;1.55;;
73909;SDS011;62245;48.070;7.874;2022-10-17T15:46:00;4.68;;;1.38;;
73909;SDS011;62245;48.070;7.874;2022-10-17T15:48:27;10.07;;;2.72;;
73909;SDS011;62245;48.070;7.874;2022-10-17T15:50:54;9.68;;;3.45;;
73909;SDS011;62245;48.070;7.874;2022-10-17T15:53:20;7.93;;;2.95;;
73909;SDS011;62245;48.070;7.874;2022-10-17T15:55:46;7.20;;;2.80;;
73909;SDS011;62245;48.070;7.874;2022-10-17T15:58:14;6.43;;;2.85;;
73909;SDS011;62245;48.070;7.874;2022-10-17T16:00:43;8.40;;;3.95;;
73909;SDS011;62245;48.070;7.874;2022-10-17T16:03:08;11.00;;;5.10;;
73909;SDS011;62245;48.070;7.874;2022-10-17T16:05:34;10.50;;;5.20;;
73909;SDS011;62245;48.070;7.874;2022-10-17T16:07:59;10.47;;;4.20;;
73909;SDS011;62245;48.070;7.874;2022-10-17T16:10:24;12.17;;;4.00;;
73909;SDS011;62245;48.070;7.874;2022-10-17T16:12:50;8.05;;;3.50;;
73909;SDS011;62245;48.070;7.874;2022-10-17T16:15:18;11.73;;;4.13;;
73909;SDS011;62245;48.070;7.874;2022-10-17T16:17:48;6.90;;;2.75;;
73909;SDS011;62245;48.070;7.874;2022-10-17T16:20:13;5.55;;;2.53;;
73909;SDS011;62245;48.070;7.874;2022-10-17T16:22:39;11.48;;;4.60;;
73909;SDS011;62245;48.070;7.874;2022-10-17T16:25:28;11.55;;;5.55;;
73909;SDS011;62245;48.070;7.874;2022-10-17T16:27:54;13.15;;;4.60;;
73909;SDS011;62245;48.070;7.874;2022-10-17T16:30:22;11.68;;;3.70;;
73909;SDS011;62245;48.070;7.874;2022-10-17T16:32:49;7.72;;;2.90;;
73909;SDS011;62245;48.070;7.874;2022-10-17T16:35:18;10.82;;;2.90;;
73909;SDS011;62245;48.070;7.874;2022-10-17T16:37:48;6.68;;;2.40;;
73909;SDS011;62245;48.070;7.874;2022-10-17T16:40:14;7.30;;;2.55;;
73909;SDS011;62245;48.070;7.874;2022-10-17T16:42:40;5.55;;;2.38;;
73909;SDS011;62245;48.070;7.874;2022-10-17T16:45:06;11.90;;;3.00;;
73909;SDS011;62245;48.070;7.874;2022-10-17T16:47:32;12.00;;;3.53;;
73909;SDS011;62245;48.070;7.874;2022-10-17T16:49:57;11.38;;;3.30;;
73909;SDS011;62245;48.070;7.874;2022-10-17T16:52:22;12.20;;;2.50;;
73909;SDS011;62245;48.070;7.874;2022-10-17T16:54:47;8.80;;;2.53;;
73909;SDS011;62245;48.070;7.874;2022-10-17T16:57:13;7.95;;;2.50;;
73909;SDS011;62245;48.070;7.874;2022-10-17T16:59:38;10.10;;;2.33;;
73909;SDS011;62245;48.070;7.874;2022-10-17T17:02:04;13.03;;;2.70;;
73909;SDS011;62245;48.070;7.874;2022-10-17T17:04:29;11.27;;;2.90;;
73909;SDS011;62245;48.070;7.874;2022-10-17T17:06:54;11.50;;;4.00;;
73909;SDS011;62245;48.070;7.874;2022-10-17T17:09:20;8.90;;;4.03;;
73909;SDS011;62245;48.070;7.874;2022-10-17T17:11:45;16.40;;;4.68;;
73909;SDS011;62245;48.070;7.874;2022-10-17T17:14:10;8.53;;;3.40;;
73909;SDS011;62245;48.070;7.874;2022-10-17T17:16:36;10.90;;;3.40;;
73909;SDS011;62245;48.070;7.874;2022-10-17T17:19:03;10.47;;;3.03;;
73909;SDS011;62245;48.070;7.874;2022-10-17T17:21:30;11.73;;;2.72;;
73909;SDS011;62245;48.070;7.874;2022-10-17T17:23:57;20.67;;;3.33;;
73909;SDS011;62245;48.070;7.874;2022-10-17T17:26:24;20.98;;;4.07;;
73909;SDS011;62245;48.070;7.874;2022-10-17T17:28:50;31.20;;;14.00;;
73909;SDS011;62245;48.070;7.874;2022-10-17T17:31:27;34.38;;;16.73;;
73909;SDS011;62245;48.070;7.874;2022-10-17T17:33:54;12.70;;;4.97;;
73909;SDS011;62245;48.070;7.874;2022-10-17T17:36:21;9.63;;;2.58;;
73909;SDS011;62245;48.070;7.874;2022-10-17T17:38:54;8.18;;;1.85;;
73909;SDS011;62245;48.070;7.874;2022-10-17T17:41:21;9.68;;;2.53;;
73909;SDS011;62245;48.070;7.874;2022-10-17T17:43:47;9.38;;;2.50;;
73909;SDS011;62245;48.070;7.874;2022-10-17T17:46:16;14.75;;;2.78;;
73909;SDS011;62245;48.070;7.874;2022-10-17T17:48:44;7.95;;;1.98;;
73909;SDS011;62245;48.070;7.874;2022-10-17T17:51:11;7.90;;;1.85;;
73909;SDS011;62245;48.070;7.874;2022-10-17T17:53:37;9.80;;;2.20;;
73909;SDS011;62245;48.070;7.874;2022-10-17T17:56:04;6.65;;;2.15;;
73909;SDS011;62245;48.070;7.874;2022-10-17T17:58:31;8.07;;;2.50;;
73909;SDS011;62245;48.070;7.874;2022-10-17T18:00:57;5.78;;;2.05;;
73909;SDS011;62245;48.070;7.874;2022-10-17T18:03:23;10.27;;;2.20;;
73909;SDS011;62245;48.070;7.874;2022-10-17T18:05:49;8.23;;;2.03;;
73909;SDS011;62245;48.070;7.874;2022-10-17T18:08:14;8.18;;;2.00;;
73909;SDS011;62245;48.070;7.874;2022-10-17T18:10:40;4.70;;;1.70;;
73909;SDS011;62245;48.070;7.874;2022-10-17T18:13:05;6.33;;;1.77;;
73909;SDS011;62245;48.070;7.874;2022-10-17T18:15:30;8.87;;;2.67;;
73909;SDS011;62245;48.070;7.874;2022-10-17T18:17:56;9.55;;;2.42;;
73909;SDS011;62245;48.070;7.874;2022-10-17T18:20:21;8.07;;;2.40;;
73909;SDS011;62245;48.070;7.874;2022-10-17T18:22:46;7.37;;;2.10;;
73909;SDS011;62245;48.070;7.874;2022-10-17T18:25:12;9.77;;;2.40;;
73909;SDS011;62245;48.070;7.874;2022-10-17T18:27:37;8.88;;;2.05;;
73909;SDS011;62245;48.070;7.874;2022-10-17T18:30:02;12.07;;;2.03;;
73909;SDS011;62245;48.070;7.874;2022-10-17T18:32:29;7.88;;;1.98;;
73909;SDS011;62245;48.070;7.874;2022-10-17T18:34:55;8.10;;;1.90;;
73909;SDS011;62245;48.070;7.874;2022-10-17T18:37:20;13.90;;;4.13;;
73909;SDS011;62245;48.070;7.874;2022-10-17T18:39:46;4.63;;;1.83;;
73909;SDS011;62245;48.070;7.874;2022-10-17T18:42:15;6.35;;;1.95;;
73909;SDS011;62245;48.070;7.874;2022-10-17T18:44:41;6.75;;;1.92;;
73909;SDS011;62245;48.070;7.874;2022-10-17T18:47:06;7.80;;;2.17;;
73909;SDS011;62245;48.070;7.874;2022-10-17T18:49:31;9.27;;;2.00;;
73909;SDS011;62245;48.070;7.874;2022-10-17T18:51:56;5.85;;;1.75;;
73909;SDS011;62245;48.070;7.874;2022-10-17T18:54:23;7.63;;;2.35;;
73909;SDS011;62245;48.070;7.874;2022-10-17T18:56:49;8.02;;;1.90;;
73909;SDS011;62245;48.070;7.874;2022-10-17T18:59:16;5.78;;;2.08;;
73909;SDS011;62245;48.070;7.874;2022-10-17T19:01:42;8.18;;;2.10;;
73909;SDS011;62245;48.070;7.874;2022-10-17T19:04:08;6.53;;;1.80;;
73909;SDS011;62245;48.070;7.874;2022-10-17T19:06:34;4.60;;;1.83;;
73909;SDS011;62245;48.070;7.874;2022-10-17T19:09:01;5.32;;;1.73;;
73909;SDS011;62245;48.070;7.874;2022-10-17T19:11:29;7.82;;;1.95;;
73909;SDS011;62245;48.070;7.874;2022-10-17T19:13:56;4.05;;;1.70;;
73909;SDS011;62245;48.070;7.874;2022-10-17T19:16:23;5.57;;;1.88;;